Time;durP1;ratioP1;P1;durP2;ratioP2;P2;SDS_P1;SDS_P2;PMS_P1;PMS_P2;Temp;Humidity;BMP_temperature;BMP_pressure;BME280_temperature;BME280_humidity;BME280_pressure;Samples;Min_cycle;Max_cycle;Signal;HPM_P1;HPM_P2
2021/05/14 00:01:56;;;;;;;;;;;16.40;93.00;;;;;;5093070;28;19915;-71
2021/05/14 00:04:23;;;;;;;;;;;16.40;92.70;;;;;;5092856;28;20355;-70
2021/05/14 00:06:50;;;;;;;;;;;16.50;92.30;;;;;;5092969;28;19908;-69
2021/05/14 00:09:17;;;;;;;;;;;16.50;91.50;;;;;;5092875;28;19908;-69
2021/05/14 00:11:44;;;;;;;;;;;16.50;91.30;;;;;;5091514;28;19908;-69
2021/05/14 00:14:11;;;;;;;;;;;16.50;91.50;;;;;;5093138;28;19908;-69
2021/05/14 00:16:38;;;;;;;;;;;16.60;90.70;;;;;;5091572;28;19923;-69
2021/05/14 00:19:05;;;;;;;;;;;16.60;88.80;;;;;;5092853;28;19908;-69
2021/05/14 00:21:32;;;;;;;;;;;16.50;87.40;;;;;;5093077;28;19911;-69
2021/05/14 00:23:58;;;;;;;;;;;16.50;88.50;;;;;;5092823;28;20015;-69
2021/05/14 00:26:25;;;;;;;;;;;16.50;89.60;;;;;;5092886;28;19952;-68
2021/05/14 00:28:52;;;;;;;;;;;16.60;89.00;;;;;;5092660;28;20341;-69
2021/05/14 00:31:18;;;;;;;;;;;16.70;88.10;;;;;;5092741;28;19908;-70
2021/05/14 00:33:45;;;;;;;;;;;16.70;88.30;;;;;;5092886;28;19954;-69
2021/05/14 00:36:12;;;;;;;;;;;16.70;88.40;;;;;;5093505;28;19908;-69
2021/05/14 00:38:39;;;;;;;;;;;16.80;89.40;;;;;;5096583;28;20456;-69
2021/05/14 00:41:05;;;;;;;;;;;16.80;88.10;;;;;;5095937;28;19912;-71
2021/05/14 00:43:32;;;;;;;;;;;16.80;87.30;;;;;;5096389;28;20007;-70
2021/05/14 00:46:01;;;;;;;;;;;16.90;86.90;;;;;;5096438;28;19953;-72
2021/05/14 00:48:29;;;;;;;;;;;16.90;87.40;;;;;;5096364;28;20394;-72
2021/05/14 00:50:55;;;;;;;;;;;16.90;86.10;;;;;;5096048;28;19916;-71
2021/05/14 00:53:22;;;;;;;;;;;17.00;86.90;;;;;;5096338;28;19931;-71
2021/05/14 00:55:49;;;;;;;;;;;17.00;86.50;;;;;;5096303;28;20358;-71
2021/05/14 00:58:16;;;;;;;;;;;17.20;85.10;;;;;;5096228;28;20320;-72
2021/05/14 01:00:44;;;;;;;;;;;17.30;85.90;;;;;;5096251;28;20298;-70
2021/05/14 01:03:14;;;;;;;;;;;17.50;85.90;;;;;;5096055;28;19920;-69
2021/05/14 01:05:43;;;;;;;;;;;17.70;82.00;;;;;;5096226;28;19936;-69
2021/05/14 01:08:10;;;;;;;;;;;17.90;82.10;;;;;;5096118;28;20343;-69
2021/05/14 01:10:37;;;;;;;;;;;18.20;82.60;;;;;;5095865;28;19908;-70
2021/05/14 01:13:05;;;;;;;;;;;18.30;82.00;;;;;;5095780;28;20274;-70
2021/05/14 01:15:32;;;;;;;;;;;18.50;78.90;;;;;;5095872;28;20318;-70
2021/05/14 01:17:58;;;;;;;;;;;18.40;78.40;;;;;;5095842;28;19964;-70
2021/05/14 01:20:27;;;;;;;;;;;18.30;78.40;;;;;;5095748;28;19908;-70
2021/05/14 01:22:54;;;;;;;;;;;18.40;77.50;;;;;;5095594;28;19908;-70
2021/05/14 01:25:20;;;;;;;;;;;18.40;77.80;;;;;;5096264;28;19908;-72
2021/05/14 01:27:47;;;;;;;;;;;18.30;74.50;;;;;;5097290;28;19908;-71
2021/05/14 01:30:14;;;;;;;;;;;18.20;74.70;;;;;;5097652;28;20285;-71
2021/05/14 01:32:41;;;;;;;;;;;18.10;72.90;;;;;;5096896;28;19929;-70
2021/05/14 01:35:08;;;;;;;;;;;18.00;72.30;;;;;;5097026;28;19953;-71
2021/05/14 01:37:37;;;;;;;;;;;18.00;73.60;;;;;;5098070;28;19908;-70
2021/05/14 01:40:04;;;;;;;;;;;17.90;72.10;;;;;;5097144;28;19915;-71
2021/05/14 01:42:31;;;;;;;;;;;17.80;71.00;;;;;;5096410;28;19920;-70
2021/05/14 01:44:58;;;;;;;;;;;17.80;68.50;;;;;;5096208;28;20011;-70
2021/05/14 01:47:24;;;;;;;;;;;17.80;67.10;;;;;;5095763;28;19998;-69
2021/05/14 01:49:51;;;;;;;;;;;17.60;67.50;;;;;;5095714;28;20381;-71
2021/05/14 01:52:18;;;;;;;;;;;17.60;68.40;;;;;;5095589;28;19908;-70
2021/05/14 01:54:44;;;;;;;;;;;17.60;66.30;;;;;;5094944;28;19975;-70
2021/05/14 01:57:11;;;;;;;;;;;17.60;66.40;;;;;;5095166;28;20316;-71
2021/05/14 01:59:38;;;;;;;;;;;17.50;67.20;;;;;;5095179;28;20389;-71
2021/05/14 02:02:04;;;;;;;;;;;17.50;67.60;;;;;;5095125;28;20003;-71
2021/05/14 02:04:31;;;;;;;;;;;17.40;66.40;;;;;;5094918;28;19973;-71
2021/05/14 02:06:57;;;;;;;;;;;17.40;68.20;;;;;;5095026;28;20355;-71
2021/05/14 02:09:24;;;;;;;;;;;17.50;68.10;;;;;;5094879;28;19984;-71
2021/05/14 02:11:51;;;;;;;;;;;17.60;66.20;;;;;;5094902;28;19912;-71
2021/05/14 02:14:17;;;;;;;;;;;17.50;68.00;;;;;;5094823;28;19966;-72
2021/05/14 02:16:44;;;;;;;;;;;17.50;68.60;;;;;;5094542;28;19916;-70
2021/05/14 02:19:13;;;;;;;;;;;17.40;67.90;;;;;;5094868;28;19908;-71
2021/05/14 02:21:40;;;;;;;;;;;17.40;66.60;;;;;;5093331;28;19912;-70
2021/05/14 02:24:07;;;;;;;;;;;17.40;67.40;;;;;;5094295;28;20341;-69
2021/05/14 02:26:33;;;;;;;;;;;17.50;67.30;;;;;;5094573;28;20325;-71
2021/05/14 02:29:01;;;;;;;;;;;17.50;68.20;;;;;;5094120;28;20007;-71
2021/05/14 02:31:27;;;;;;;;;;;17.60;67.40;;;;;;5094620;28;19908;-71
2021/05/14 02:33:54;;;;;;;;;;;17.60;66.80;;;;;;5094551;28;19908;-71
2021/05/14 02:36:21;;;;;;;;;;;17.70;68.20;;;;;;5094282;28;19912;-71
2021/05/14 02:38:47;;;;;;;;;;;17.70;70.10;;;;;;5094004;28;19915;-71
2021/05/14 02:41:14;;;;;;;;;;;17.70;67.60;;;;;;5094172;28;19908;-71
2021/05/14 02:43:41;;;;;;;;;;;17.70;67.60;;;;;;5094184;28;19916;-70
2021/05/14 02:46:08;;;;;;;;;;;17.80;67.00;;;;;;5094010;28;20003;-71
2021/05/14 02:48:35;;;;;;;;;;;17.80;66.60;;;;;;5094245;28;19913;-70
2021/05/14 02:51:02;;;;;;;;;;;17.80;65.90;;;;;;5093721;28;19919;-71
2021/05/14 02:53:29;;;;;;;;;;;17.80;65.50;;;;;;5094000;28;20339;-70
2021/05/14 02:55:55;;;;;;;;;;;17.80;67.90;;;;;;5093774;28;19969;-70
2021/05/14 02:58:22;;;;;;;;;;;17.80;68.30;;;;;;5094028;28;19953;-68
2021/05/14 03:00:49;;;;;;;;;;;17.90;66.00;;;;;;5092861;28;19908;-68
2021/05/14 03:03:15;;;;;;;;;;;18.00;65.80;;;;;;5093711;28;19912;-69
2021/05/14 03:05:42;;;;;;;;;;;17.90;66.10;;;;;;5093865;28;20341;-68
2021/05/14 03:08:08;;;;;;;;;;;17.90;66.50;;;;;;5093744;28;19943;-70
2021/05/14 03:10:35;;;;;;;;;;;17.90;66.70;;;;;;5093650;28;19908;-69
2021/05/14 03:13:02;;;;;;;;;;;18.00;66.20;;;;;;5093468;28;19908;-69
2021/05/14 03:15:28;;;;;;;;;;;18.00;66.10;;;;;;5092414;28;19912;-70
2021/05/14 03:17:55;;;;;;;;;;;18.00;66.00;;;;;;5093604;28;20418;-70
2021/05/14 03:20:22;;;;;;;;;;;18.00;67.40;;;;;;5093698;28;19996;-69
2021/05/14 03:22:48;;;;;;;;;;;18.00;66.20;;;;;;5093349;28;19908;-69
2021/05/14 03:25:15;;;;;;;;;;;18.00;66.40;;;;;;5093629;28;20006;-69
2021/05/14 03:27:42;;;;;;;;;;;18.00;66.70;;;;;;5093527;28;19958;-69
2021/05/14 03:30:09;;;;;;;;;;;18.00;66.10;;;;;;5093362;28;19916;-70
2021/05/14 03:32:36;;;;;;;;;;;18.10;64.90;;;;;;5093325;28;20343;-67
2021/05/14 03:35:04;;;;;;;;;;;18.10;65.30;;;;;;5093177;28;20457;-70
2021/05/14 03:37:30;;;;;;;;;;;18.20;67.20;;;;;;5093214;28;20445;-70
2021/05/14 03:40:02;;;;;;;;;;;18.20;66.70;;;;;;5093011;28;20304;-69
2021/05/14 03:42:30;;;;;;;;;;;18.10;66.80;;;;;;5093285;28;19945;-69
2021/05/14 03:44:56;;;;;;;;;;;18.10;67.60;;;;;;5092842;28;19916;-69
2021/05/14 03:47:23;;;;;;;;;;;18.00;69.90;;;;;;5093116;28;19919;-70
2021/05/14 03:49:50;;;;;;;;;;;18.00;71.00;;;;;;5093297;28;20378;-68
2021/05/14 03:52:17;;;;;;;;;;;18.00;68.90;;;;;;5093188;28;19961;-69
2021/05/14 03:54:44;;;;;;;;;;;18.00;68.90;;;;;;5092721;28;19912;-69
2021/05/14 03:57:11;;;;;;;;;;;18.00;70.30;;;;;;5093099;28;19916;-69
2021/05/14 03:59:38;;;;;;;;;;;18.10;70.90;;;;;;5093020;28;19963;-69
2021/05/14 04:02:05;;;;;;;;;;;18.10;71.10;;;;;;5092997;28;19965;-69
2021/05/14 04:04:32;;;;;;;;;;;18.10;67.90;;;;;;5093013;28;20352;-70
2021/05/14 04:07:00;;;;;;;;;;;18.00;68.10;;;;;;5092579;28;20278;-70
2021/05/14 04:09:30;;;;;;;;;;;18.00;69.70;;;;;;5092817;28;19908;-70
2021/05/14 04:12:12;;;;;;;;;;;18.00;69.30;;;;;;5095229;28;19915;-70
2021/05/14 04:14:38;;;;;;;;;;;18.00;68.20;;;;;;5097287;28;19908;-69
2021/05/14 04:17:06;;;;;;;;;;;17.90;68.80;;;;;;5096993;28;19953;-69
2021/05/14 04:19:33;;;;;;;;;;;17.90;68.70;;;;;;5097076;28;20251;-69
2021/05/14 04:22:01;;;;;;;;;;;17.90;70.40;;;;;;5097511;28;20244;-70
2021/05/14 04:24:27;;;;;;;;;;;17.90;69.50;;;;;;5097008;28;20464;-70
2021/05/14 04:26:55;;;;;;;;;;;17.90;70.20;;;;;;5096848;28;19908;-70
2021/05/14 04:29:22;;;;;;;;;;;18.00;68.70;;;;;;5096765;28;20006;-70
2021/05/14 04:31:49;;;;;;;;;;;17.90;68.90;;;;;;5096905;28;19922;-70
2021/05/14 04:34:18;;;;;;;;;;;18.00;69.40;;;;;;5096782;28;19915;-70
2021/05/14 04:36:45;;;;;;;;;;;17.90;68.40;;;;;;5096466;28;19915;-69
2021/05/14 04:39:12;;;;;;;;;;;18.00;69.30;;;;;;5096371;28;19912;-70
2021/05/14 04:41:39;;;;;;;;;;;18.00;68.50;;;;;;5096385;28;19912;-71
2021/05/14 04:44:06;;;;;;;;;;;18.00;69.60;;;;;;5096412;28;19921;-70
2021/05/14 04:46:33;;;;;;;;;;;18.00;70.40;;;;;;5096526;28;20424;-69
2021/05/14 04:48:59;;;;;;;;;;;18.00;70.90;;;;;;5096170;28;19957;-70
2021/05/14 04:51:27;;;;;;;;;;;17.90;68.40;;;;;;5096459;28;19908;-69
2021/05/14 04:53:55;;;;;;;;;;;17.90;68.90;;;;;;5096073;28;19908;-69
2021/05/14 04:56:21;;;;;;;;;;;18.00;67.50;;;;;;5096268;28;19999;-70
2021/05/14 04:58:48;;;;;;;;;;;18.00;67.80;;;;;;5096114;28;19927;-70
2021/05/14 05:01:15;;;;;;;;;;;17.90;67.00;;;;;;5096120;28;19908;-69
2021/05/14 05:03:46;;;;;;;;;;;17.90;68.10;;;;;;5096102;28;19931;-69
2021/05/14 05:06:13;;;;;;;;;;;17.90;66.30;;;;;;5096038;28;19912;-69
2021/05/14 05:08:40;;;;;;;;;;;17.90;66.80;;;;;;5095955;28;19908;-69
2021/05/14 05:11:06;;;;;;;;;;;17.90;66.80;;;;;;5095850;28;19908;-69
2021/05/14 05:13:33;;;;;;;;;;;17.80;68.10;;;;;;5095844;28;19912;-70
2021/05/14 05:16:00;;;;;;;;;;;17.90;66.70;;;;;;5095731;28;20294;-69
2021/05/14 05:18:27;;;;;;;;;;;17.80;66.80;;;;;;5096024;28;20354;-69
2021/05/14 05:20:54;;;;;;;;;;;17.80;66.80;;;;;;5094166;28;20428;-69
2021/05/14 05:23:21;;;;;;;;;;;17.80;66.50;;;;;;5094967;28;19912;-69
2021/05/14 05:25:48;;;;;;;;;;;17.80;66.80;;;;;;5095999;28;19908;-70
2021/05/14 05:28:19;;;;;;;;;;;17.80;67.30;;;;;;5094737;28;19908;-69
2021/05/14 05:30:46;;;;;;;;;;;17.80;66.70;;;;;;5095236;28;20255;-71
2021/05/14 05:33:13;;;;;;;;;;;17.80;66.70;;;;;;5095480;28;19959;-70
2021/05/14 05:35:39;;;;;;;;;;;17.80;67.90;;;;;;5094329;28;20278;-70
2021/05/14 05:38:19;;;;;;;;;;;17.80;67.80;;;;;;5093957;28;19930;-70
2021/05/14 05:40:46;;;;;;;;;;;17.80;66.50;;;;;;5095282;28;20048;-70
2021/05/14 05:43:13;;;;;;;;;;;17.80;66.30;;;;;;5094887;28;19920;-69
2021/05/14 05:45:40;;;;;;;;;;;17.80;65.60;;;;;;5096820;28;19908;-70
2021/05/14 05:48:08;;;;;;;;;;;17.70;66.20;;;;;;5095615;28;19908;-70
2021/05/14 05:50:35;;;;;;;;;;;17.70;69.10;;;;;;5095286;28;19958;-71
2021/05/14 05:53:02;;;;;;;;;;;17.60;66.30;;;;;;5094897;28;19908;-71
2021/05/14 05:55:29;;;;;;;;;;;17.70;66.60;;;;;;5095069;28;20018;-70
2021/05/14 05:57:56;;;;;;;;;;;17.60;66.00;;;;;;5095105;28;19977;-71
2021/05/14 06:00:22;;;;;;;;;;;17.50;65.90;;;;;;5093617;28;19908;-70
2021/05/14 06:02:49;;;;;;;;;;;17.50;65.90;;;;;;5094770;28;19957;-70
2021/05/14 06:05:16;;;;;;;;;;;17.50;65.80;;;;;;5094800;28;19951;-70
2021/05/14 06:07:42;;;;;;;;;;;17.40;66.90;;;;;;5094689;28;19908;-69
2021/05/14 06:10:09;;;;;;;;;;;17.40;66.40;;;;;;5095004;28;19915;-69
2021/05/14 06:12:36;;;;;;;;;;;17.40;67.20;;;;;;5094788;28;19908;-71
2021/05/14 06:15:03;;;;;;;;;;;17.40;66.30;;;;;;5094579;28;19916;-69
2021/05/14 06:17:30;;;;;;;;;;;17.30;67.40;;;;;;5094647;28;19912;-70
2021/05/14 06:19:58;;;;;;;;;;;17.30;67.20;;;;;;5094678;28;19908;-71
2021/05/14 06:22:25;;;;;;;;;;;17.30;67.20;;;;;;5094736;28;20280;-71
2021/05/14 06:24:51;;;;;;;;;;;17.20;67.00;;;;;;5094470;28;20298;-71
2021/05/14 06:27:18;;;;;;;;;;;17.20;66.70;;;;;;5094584;28;19908;-70
2021/05/14 06:29:46;;;;;;;;;;;17.20;67.80;;;;;;5094694;28;20007;-70
2021/05/14 06:32:13;;;;;;;;;;;17.10;67.70;;;;;;5094360;28;19997;-70
2021/05/14 06:34:40;;;;;;;;;;;17.00;68.60;;;;;;5094170;28;19908;-70
2021/05/14 06:37:07;;;;;;;;;;;17.00;69.40;;;;;;5094337;28;19931;-69
2021/05/14 06:39:34;;;;;;;;;;;16.90;69.70;;;;;;5094137;28;19951;-70
2021/05/14 06:42:00;;;;;;;;;;;16.90;68.90;;;;;;5094048;28;19927;-70
2021/05/14 06:44:28;;;;;;;;;;;16.80;69.40;;;;;;5094224;28;19920;-70
2021/05/14 06:46:55;;;;;;;;;;;16.80;70.00;;;;;;5093971;28;19950;-71
2021/05/14 06:49:22;;;;;;;;;;;16.70;70.50;;;;;;5092887;28;20258;-70
2021/05/14 06:51:49;;;;;;;;;;;16.70;71.40;;;;;;5094194;28;19915;-71
2021/05/14 06:54:16;;;;;;;;;;;16.60;71.50;;;;;;5093909;28;19908;-70
2021/05/14 06:56:43;;;;;;;;;;;16.60;71.70;;;;;;5093672;28;19912;-69
2021/05/14 06:59:09;;;;;;;;;;;16.60;71.80;;;;;;5094008;28;19908;-69
2021/05/14 07:01:36;;;;;;;;;;;16.50;72.50;;;;;;5093767;28;19999;-69
2021/05/14 07:04:03;;;;;;;;;;;16.50;72.90;;;;;;5084868;28;19986;-70
2021/05/14 07:06:30;;;;;;;;;;;16.40;73.00;;;;;;5073579;28;19916;-72
2021/05/14 07:08:56;;;;;;;;;;;16.40;73.00;;;;;;5072885;28;20367;-69
2021/05/14 07:11:23;;;;;;;;;;;16.40;73.60;;;;;;5072605;28;19919;-71
2021/05/14 07:13:50;;;;;;;;;;;16.30;75.50;;;;;;5073239;28;19931;-71
2021/05/14 07:16:16;;;;;;;;;;;16.30;74.00;;;;;;5073376;28;19969;-71
2021/05/14 07:18:43;;;;;;;;;;;16.20;74.40;;;;;;5072919;28;19920;-70
2021/05/14 07:21:10;;;;;;;;;;;16.20;73.70;;;;;;5073246;28;20278;-71
2021/05/14 07:23:36;;;;;;;;;;;16.10;74.40;;;;;;5073152;28;19927;-72
2021/05/14 07:26:03;;;;;;;;;;;16.00;74.70;;;;;;5072331;28;19962;-70
2021/05/14 07:28:30;;;;;;;;;;;16.00;74.30;;;;;;5073045;28;19909;-70
2021/05/14 07:30:56;;;;;;;;;;;16.00;75.00;;;;;;5072804;28;20379;-72
2021/05/14 07:33:23;;;;;;;;;;;15.90;75.90;;;;;;5073090;28;19913;-71
2021/05/14 07:35:50;;;;;;;;;;;15.90;75.90;;;;;;5072904;28;19940;-72
2021/05/14 07:38:16;;;;;;;;;;;15.90;76.40;;;;;;5072733;28;19920;-71
2021/05/14 07:40:43;;;;;;;;;;;15.80;75.50;;;;;;5070413;28;19917;-72
2021/05/14 07:43:10;;;;;;;;;;;15.80;76.70;;;;;;5070447;28;19924;-68
2021/05/14 07:45:36;;;;;;;;;;;15.80;76.60;;;;;;5070200;28;19966;-72
2021/05/14 07:48:19;;;;;;;;;;;15.70;78.40;;;;;;5070680;28;19959;-69
2021/05/14 07:50:46;;;;;;;;;;;15.70;76.50;;;;;;5070634;28;20431;-69
2021/05/14 07:53:13;;;;;;;;;;;15.60;76.00;;;;;;5070287;28;20021;-70
2021/05/14 07:55:40;;;;;;;;;;;15.60;76.90;;;;;;5070161;28;20416;-68
2021/05/14 07:58:07;;;;;;;;;;;15.60;77.40;;;;;;5070798;28;19909;-71
2021/05/14 08:00:34;;;;;;;;;;;15.50;77.50;;;;;;5070629;28;19955;-69
2021/05/14 08:03:00;;;;;;;;;;;15.50;77.30;;;;;;5070353;28;19912;-73
2021/05/14 08:05:27;;;;;;;;;;;15.40;78.90;;;;;;5070427;28;19908;-69
2021/05/14 08:08:08;;;;;;;;;;;15.40;78.80;;;;;;5070368;28;19978;-71
2021/05/14 08:10:34;;;;;;;;;;;15.40;78.40;;;;;;5070027;28;20402;-72
2021/05/14 08:13:01;;;;;;;;;;;15.40;77.70;;;;;;5070350;28;19947;-71
2021/05/14 08:15:28;;;;;;;;;;;15.40;78.20;;;;;;5070470;28;20398;-71
2021/05/14 08:17:55;;;;;;;;;;;15.40;78.80;;;;;;5070395;28;20470;-70
2021/05/14 08:20:22;;;;;;;;;;;15.30;78.10;;;;;;5070322;28;20007;-70
2021/05/14 08:22:49;;;;;;;;;;;15.30;78.80;;;;;;5070250;28;19918;-71
2021/05/14 08:25:16;;;;;;;;;;;15.20;78.60;;;;;;5069925;28;19920;-71
2021/05/14 08:27:43;;;;;;;;;;;15.30;78.60;;;;;;5069315;28;20179;-72
2021/05/14 08:30:11;;;;;;;;;;;15.30;79.00;;;;;;5070655;28;19908;-70
2021/05/14 08:32:38;;;;;;;;;;;15.30;78.60;;;;;;5070090;28;19912;-70
2021/05/14 08:35:05;;;;;;;;;;;15.20;79.00;;;;;;5070333;28;19956;-71
2021/05/14 08:37:32;;;;;;;;;;;15.20;78.30;;;;;;5070345;28;20570;-71
2021/05/14 08:39:59;;;;;;;;;;;15.20;77.90;;;;;;5069663;28;19912;-71
2021/05/14 08:42:25;;;;;;;;;;;15.20;78.30;;;;;;5070110;28;19978;-71
2021/05/14 08:44:52;;;;;;;;;;;15.20;78.30;;;;;;5069810;28;19917;-71
2021/05/14 08:47:19;;;;;;;;;;;15.10;78.70;;;;;;5070022;28;19995;-70
2021/05/14 08:49:47;;;;;;;;;;;15.10;78.70;;;;;;5070234;28;19920;-71
2021/05/14 08:52:16;;;;;;;;;;;15.10;79.00;;;;;;5070147;28;19913;-70
2021/05/14 08:54:45;;;;;;;;;;;15.20;79.20;;;;;;5069627;28;19912;-71
2021/05/14 08:57:11;;;;;;;;;;;15.10;79.00;;;;;;5070874;28;20294;-72
2021/05/14 08:59:39;;;;;;;;;;;15.10;79.10;;;;;;5073533;28;20394;-72
2021/05/14 09:02:07;;;;;;;;;;;15.10;79.80;;;;;;5073819;28;19909;-72
2021/05/14 09:04:33;;;;;;;;;;;15.10;80.30;;;;;;5073646;28;20337;-70
2021/05/14 09:07:00;;;;;;;;;;;15.10;79.90;;;;;;5075589;28;19908;-71
2021/05/14 09:09:27;;;;;;;;;;;15.10;80.40;;;;;;5075890;28;19908;-72
2021/05/14 09:11:54;;;;;;;;;;;15.10;79.20;;;;;;5075842;28;20003;-72
2021/05/14 09:14:46;;;;;;;;;;;15.10;80.60;;;;;;5075699;28;19912;-71
2021/05/14 09:17:14;;;;;;;;;;;15.20;81.00;;;;;;5075721;28;19919;-71
2021/05/14 09:19:45;;;;;;;;;;;15.10;81.40;;;;;;5075650;28;19908;-71
2021/05/14 09:22:19;;;;;;;;;;;15.10;81.10;;;;;;5075404;28;19916;-71
2021/05/14 09:24:56;;;;;;;;;;;15.00;80.30;;;;;;5075147;28;19952;-70
2021/05/14 09:27:30;;;;;;;;;;;15.00;81.50;;;;;;5075378;28;20374;-72
2021/05/14 09:29:58;;;;;;;;;;;14.90;80.70;;;;;;5075196;28;20345;-72
2021/05/14 09:32:31;;;;;;;;;;;14.90;80.30;;;;;;5075210;28;20014;-71
2021/05/14 09:34:59;;;;;;;;;;;14.90;80.70;;;;;;5075111;28;19913;-70
2021/05/14 09:37:27;;;;;;;;;;;14.90;82.80;;;;;;5075384;28;19908;-71
2021/05/14 09:40:12;;;;;;;;;;;14.80;81.40;;;;;;5074996;28;20354;-72
2021/05/14 09:42:39;;;;;;;;;;;14.80;81.10;;;;;;5075216;28;19927;-72
2021/05/14 09:45:15;;;;;;;;;;;14.80;82.00;;;;;;5074837;28;19916;-72
2021/05/14 09:47:41;;;;;;;;;;;14.80;81.80;;;;;;5107545;28;20287;-72
2021/05/14 09:50:28;;;;;;;;;;;14.80;82.80;;;;;;5075190;28;19908;-72
2021/05/14 09:53:08;;;;;;;;;;;14.70;81.80;;;;;;5074465;28;20363;-71
2021/05/14 09:55:36;;;;;;;;;;;14.70;82.80;;;;;;5075156;28;19909;-72
2021/05/14 09:58:10;;;;;;;;;;;14.70;81.50;;;;;;5074976;28;19951;-72
2021/05/14 10:00:37;;;;;;;;;;;14.80;81.60;;;;;;5075094;28;19954;-72
2021/05/14 10:03:05;;;;;;;;;;;14.80;81.60;;;;;;5074888;28;19940;-72
2021/05/14 10:05:35;;;;;;;;;;;14.80;82.20;;;;;;5074805;28;19908;-71
2021/05/14 10:08:02;;;;;;;;;;;14.80;82.60;;;;;;5074713;28;19931;-72
2021/05/14 10:10:29;;;;;;;;;;;14.70;82.10;;;;;;5074172;28;19952;-72
2021/05/14 10:12:55;;;;;;;;;;;14.70;82.50;;;;;;5074004;28;20066;-72
2021/05/14 10:15:24;;;;;;;;;;;14.70;81.80;;;;;;5074487;28;19991;-71
2021/05/14 10:17:52;;;;;;;;;;;14.70;81.20;;;;;;5074662;28;19915;-71
2021/05/14 10:20:25;;;;;;;;;;;14.60;81.30;;;;;;5074615;28;19971;-71
2021/05/14 10:22:53;;;;;;;;;;;14.70;83.80;;;;;;5074063;28;20371;-71
2021/05/14 10:25:34;;;;;;;;;;;14.60;81.90;;;;;;5074116;28;19916;-71
2021/05/14 10:28:27;;;;;;;;;;;14.50;82.40;;;;;;5074884;28;19976;-72
2021/05/14 10:31:07;;;;;;;;;;;14.50;82.90;;;;;;5073506;28;20273;-71
2021/05/14 10:33:40;;;;;;;;;;;14.50;82.60;;;;;;5074892;28;20015;-70
2021/05/14 10:36:32;;;;;;;;;;;14.50;83.50;;;;;;5075110;28;19908;-72
2021/05/14 10:39:02;;;;;;;;;;;14.40;82.90;;;;;;5075421;28;19908;-72
2021/05/14 10:41:29;;;;;;;;;;;14.50;83.30;;;;;;5076318;28;19916;-70
2021/05/14 10:44:08;;;;;;;;;;;14.40;85.60;;;;;;5076793;28;20375;-72
2021/05/14 10:46:35;;;;;;;;;;;14.50;85.10;;;;;;5080511;28;19967;-71
2021/05/14 10:49:01;;;;;;;;;;;14.40;83.60;;;;;;5087133;28;20009;-71
2021/05/14 10:51:46;;;;;;;;;;;14.30;84.00;;;;;;5086263;28;19909;-71
2021/05/14 10:54:31;;;;;;;;;;;14.30;83.80;;;;;;5080967;28;19912;-71
2021/05/14 10:56:58;;;;;;;;;;;14.30;84.30;;;;;;5073679;28;19995;-71
2021/05/14 10:59:33;;;;;;;;;;;14.30;86.00;;;;;;5073785;28;19995;-72
2021/05/14 11:02:00;;;;;;;;;;;14.30;85.90;;;;;;5073766;28;20397;-70
2021/05/14 11:04:27;;;;;;;;;;;14.30;84.10;;;;;;5073632;28;19956;-72
2021/05/14 11:06:54;;;;;;;;;;;14.30;85.80;;;;;;5073537;28;20334;-72
2021/05/14 11:09:24;;;;;;;;;;;14.30;84.40;;;;;;5073252;28;19909;-71
2021/05/14 11:12:08;;;;;;;;;;;14.30;86.40;;;;;;5073653;28;19923;-69
2021/05/14 11:14:56;;;;;;;;;;;14.40;86.40;;;;;;5073428;28;19909;-70
2021/05/14 11:17:23;;;;;;;;;;;14.30;85.50;;;;;;5073566;28;20979;-71
2021/05/14 11:19:50;;;;;;;;;;;14.30;84.90;;;;;;5073309;28;19915;-68
2021/05/14 11:22:18;;;;;;;;;;;14.20;85.00;;;;;;5072441;28;20429;-68
2021/05/14 11:24:49;;;;;;;;;;;14.20;84.90;;;;;;5072474;28;19917;-70
2021/05/14 11:27:16;;;;;;;;;;;14.20;85.20;;;;;;5073342;28;19908;-67
2021/05/14 11:29:47;;;;;;;;;;;14.30;85.30;;;;;;5073266;28;19962;-70
2021/05/14 11:32:15;;;;;;;;;;;14.20;86.50;;;;;;5073109;28;19920;-70
2021/05/14 11:34:55;;;;;;;;;;;14.20;86.10;;;;;;5073252;28;19916;-69
2021/05/14 11:37:23;;;;;;;;;;;14.30;87.10;;;;;;5072996;28;19908;-68
2021/05/14 11:39:49;;;;;;;;;;;14.30;85.60;;;;;;5072409;28;19939;-69
2021/05/14 11:42:20;;;;;;;;;;;14.20;85.70;;;;;;5072767;28;19927;-70
2021/05/14 11:44:57;;;;;;;;;;;14.20;85.40;;;;;;5072854;28;19943;-70
2021/05/14 11:47:25;;;;;;;;;;;14.20;86.30;;;;;;5072987;28;19953;-70
2021/05/14 11:49:51;;;;;;;;;;;14.20;85.40;;;;;;5073064;28;19971;-70
2021/05/14 11:52:37;;;;;;;;;;;14.10;85.20;;;;;;5072956;28;19909;-69
2021/05/14 11:55:09;;;;;;;;;;;14.10;86.10;;;;;;5072849;28;19908;-71
2021/05/14 11:57:36;;;;;;;;;;;14.10;87.50;;;;;;5072905;28;19995;-70
2021/05/14 12:00:04;;;;;;;;;;;14.10;85.00;;;;;;5070691;28;19913;-69
2021/05/14 12:03:00;;;;;;;;;;;14.20;88.40;;;;;;5070775;28;20338;-69
2021/05/14 12:05:28;;;;;;;;;;;14.20;85.30;;;;;;5066007;28;20587;-69
2021/05/14 12:08:16;;;;;;;;;;;14.20;85.90;;;;;;5069958;28;20314;-68
2021/05/14 12:10:47;;;;;;;;;;;14.20;86.40;;;;;;5070292;28;19909;-69
2021/05/14 12:13:15;;;;;;;;;;;14.20;84.50;;;;;;5070366;28;19920;-69
2021/05/14 12:15:41;;;;;;;;;;;14.20;86.40;;;;;;5070740;28;19909;-69
2021/05/14 12:18:08;;;;;;;;;;;14.30;86.10;;;;;;5070674;28;19908;-70
2021/05/14 12:20:40;;;;;;;;;;;14.30;85.20;;;;;;5070672;28;19909;-69
2021/05/14 12:23:08;;;;;;;;;;;14.20;86.30;;;;;;5070040;28;19920;-69
2021/05/14 12:25:43;;;;;;;;;;;14.30;87.40;;;;;;5102311;28;19912;-69
2021/05/14 12:28:27;;;;;;;;;;;14.30;88.00;;;;;;5070515;28;19971;-70
2021/05/14 12:30:54;;;;;;;;;;;14.20;86.80;;;;;;5070427;28;19939;-71
2021/05/14 12:33:21;;;;;;;;;;;14.20;87.80;;;;;;5073418;28;20005;-70
2021/05/14 12:35:58;;;;;;;;;;;14.20;86.30;;;;;;5074365;28;19912;-69
2021/05/14 12:38:41;;;;;;;;;;;14.20;85.80;;;;;;5073499;28;20296;-70
2021/05/14 12:41:24;;;;;;;;;;;14.10;86.70;;;;;;5074138;28;19909;-70
2021/05/14 12:44:06;;;;;;;;;;;14.10;86.10;;;;;;5074251;28;19916;-70
2021/05/14 12:46:33;;;;;;;;;;;14.10;87.00;;;;;;5074322;28;19912;-70
2021/05/14 12:49:09;;;;;;;;;;;14.10;86.80;;;;;;5073927;28;19908;-70
2021/05/14 12:51:36;;;;;;;;;;;14.10;86.00;;;;;;5073640;28;20385;-70
2021/05/14 12:54:03;;;;;;;;;;;14.10;87.00;;;;;;5073692;28;20359;-70
2021/05/14 12:56:30;;;;;;;;;;;14.10;86.00;;;;;;5074193;28;19908;-68
2021/05/14 12:59:00;;;;;;;;;;;14.10;85.50;;;;;;5073955;28;19908;-68
2021/05/14 13:01:27;;;;;;;;;;;14.20;86.40;;;;;;5074036;28;19908;-69
2021/05/14 13:04:06;;;;;;;;;;;14.20;85.60;;;;;;5073823;28;19924;-70
2021/05/14 13:06:33;;;;;;;;;;;14.20;86.20;;;;;;5073698;28;20387;-69
2021/05/14 13:09:07;;;;;;;;;;;14.20;84.60;;;;;;5073222;28;19954;-70
2021/05/14 13:11:43;;;;;;;;;;;14.20;85.90;;;;;;5074053;28;19912;-69
2021/05/14 13:14:12;;;;;;;;;;;14.20;86.10;;;;;;5074115;28;19946;-68
2021/05/14 13:16:39;;;;;;;;;;;14.20;85.10;;;;;;5074236;28;19916;-70
2021/05/14 13:19:05;;;;;;;;;;;14.20;85.80;;;;;;5073187;28;19970;-68
2021/05/14 13:21:32;;;;;;;;;;;14.10;86.30;;;;;;5084051;28;19991;-71
2021/05/14 13:23:59;;;;;;;;;;;14.10;88.00;;;;;;5073741;28;20007;-69
2021/05/14 13:26:26;;;;;;;;;;;14.10;87.00;;;;;;5073548;28;19916;-70
2021/05/14 13:28:52;;;;;;;;;;;14.00;86.70;;;;;;5073598;28;19913;-70
2021/05/14 13:31:20;;;;;;;;;;;13.90;86.70;;;;;;5073208;28;20408;-71
2021/05/14 13:33:48;;;;;;;;;;;13.90;88.40;;;;;;5073527;28;19913;-70
2021/05/14 13:36:15;;;;;;;;;;;13.80;87.20;;;;;;5073200;28;19916;-70
2021/05/14 13:38:42;;;;;;;;;;;13.80;87.40;;;;;;5073355;28;19909;-70
2021/05/14 13:41:09;;;;;;;;;;;13.70;87.20;;;;;;5073077;28;19913;-69
2021/05/14 13:43:35;;;;;;;;;;;13.80;88.60;;;;;;5071993;28;20021;-70
2021/05/14 13:46:02;;;;;;;;;;;13.80;88.50;;;;;;5073377;28;19912;-69
2021/05/14 13:48:29;;;;;;;;;;;13.80;89.50;;;;;;5073264;28;19918;-69
2021/05/14 13:50:56;;;;;;;;;;;13.70;89.80;;;;;;5072833;28;20386;-69
2021/05/14 13:53:27;;;;;;;;;;;13.70;90.20;;;;;;5073158;28;20069;-69
2021/05/14 13:55:55;;;;;;;;;;;13.60;90.10;;;;;;5072958;28;19912;-70
2021/05/14 13:58:22;;;;;;;;;;;13.40;90.30;;;;;;5072649;28;19962;-69
2021/05/14 14:00:49;;;;;;;;;;;13.40;90.50;;;;;;5072755;28;19908;-70
2021/05/14 14:03:15;;;;;;;;;;;13.40;91.00;;;;;;5072814;28;19931;-69
2021/05/14 14:05:43;;;;;;;;;;;13.40;90.50;;;;;;5072667;28;19908;-68
2021/05/14 14:08:10;;;;;;;;;;;13.50;90.70;;;;;;5072721;28;20570;-69
2021/05/14 14:10:37;;;;;;;;;;;13.50;91.00;;;;;;5072246;28;20263;-70
2021/05/14 14:13:05;;;;;;;;;;;13.50;91.00;;;;;;5072449;28;19912;-70
2021/05/14 14:15:31;;;;;;;;;;;13.40;90.50;;;;;;5072735;28;19908;-68
2021/05/14 14:17:58;;;;;;;;;;;13.40;91.20;;;;;;5072747;28;19948;-70
2021/05/14 14:20:24;;;;;;;;;;;13.30;91.40;;;;;;5072309;28;19912;-69
2021/05/14 14:22:52;;;;;;;;;;;13.40;91.60;;;;;;5071928;28;20011;-70
2021/05/14 14:25:20;;;;;;;;;;;13.40;91.20;;;;;;5072426;28;20286;-69